Time;durP1;ratioP1;P1;durP2;ratioP2;P2;SDS_P1;SDS_P2;PMS_P1;PMS_P2;Temp;Humidity;BMP_temperature;BMP_pressure;BME280_temperature;BME280_humidity;BME280_pressure;Samples;Min_cycle;Max_cycle;Signal;HPM_P1;HPM_P2
2024/03/22 00:00:25;;;;;;;31.00;21.40;;;;;;;1.15;100.00;101329.72;104860;1270;59589;-73
2024/03/22 00:02:52;;;;;;;27.40;18.70;;;;;;;1.15;100.00;101325.94;104855;1263;71810;-75
2024/03/22 00:05:21;;;;;;;33.60;19.90;;;;;;;1.11;100.00;101330.10;104870;1268;66135;-74
2024/03/22 00:07:48;;;;;;;32.90;20.10;;;;;;;1.10;100.00;101327.36;104830;1266;71625;-75
2024/03/22 00:10:16;;;;;;;31.50;19.50;;;;;;;1.07;100.00;101322.39;104979;1266;61375;-74
2024/03/22 00:12:44;;;;;;;32.70;19.40;;;;;;;1.05;100.00;101324.83;104996;1260;60328;-74
2024/03/22 00:15:11;;;;;;;30.70;18.80;;;;;;;1.03;100.00;101321.92;105022;1260;73936;-73
2024/03/22 00:17:38;;;;;;;29.60;18.20;;;;;;;1.01;100.00;101322.63;105201;1259;63408;-74
2024/03/22 00:20:06;;;;;;;28.70;19.00;;;;;;;1.00;100.00;101323.32;105237;1259;71340;-75
2024/03/22 00:22:33;;;;;;;30.60;17.90;;;;;;;0.98;100.00;101323.52;105169;1262;60528;-75
2024/03/22 00:25:01;;;;;;;34.60;18.40;;;;;;;0.93;100.00;101320.80;105338;1261;60472;-74
2024/03/22 00:27:28;;;;;;;31.10;19.20;;;;;;;0.91;100.00;101319.96;105335;1256;73753;-73
2024/03/22 00:29:55;;;;;;;27.90;17.30;;;;;;;0.90;100.00;101322.03;105413;1256;63797;-75
2024/03/22 00:32:22;;;;;;;29.00;18.70;;;;;;;0.89;100.00;101322.73;105384;1256;72713;-74
2024/03/22 00:34:50;;;;;;;27.70;18.10;;;;;;;0.90;100.00;101316.52;106036;1256;60913;-74
2024/03/22 00:37:17;;;;;;;34.90;20.60;;;;;;;0.91;100.00;101315.82;105753;1261;60429;-73
2024/03/22 00:39:44;;;;;;;34.30;20.40;;;;;;;0.90;100.00;101312.56;105284;1256;73860;-75
2024/03/22 00:42:12;;;;;;;34.00;20.30;;;;;;;0.89;100.00;101308.10;105426;1256;62446;-74
2024/03/22 00:44:39;;;;;;;31.70;19.20;;;;;;;0.84;100.00;101307.46;105462;1260;73889;-74
2024/03/22 00:47:06;;;;;;;32.80;19.40;;;;;;;0.77;100.00;101305.96;105461;1256;62007;-76
2024/03/22 00:49:34;;;;;;;33.20;21.00;;;;;;;0.69;100.00;101298.80;105301;1256;61051;-73
2024/03/22 00:52:02;;;;;;;30.60;18.90;;;;;;;0.64;100.00;101301.25;105328;1262;73859;-74
2024/03/22 00:54:29;;;;;;;35.20;22.00;;;;;;;0.60;100.00;101300.43;105243;1256;62900;-72
2024/03/22 00:56:57;;;;;;;34.50;20.90;;;;;;;0.55;100.00;101299.27;105225;1259;71529;-74
2024/03/22 00:59:24;;;;;;;34.80;22.20;;;;;;;0.53;100.00;101296.01;105277;1262;60557;-74
2024/03/22 01:01:51;;;;;;;39.40;22.90;;;;;;;0.50;100.00;101297.05;105331;1256;60335;-73
2024/03/22 01:17:01;;;;;;;35.00;19.70;;;;;;;0.42;100.00;101290.41;102828;1288;601070;-74
2024/03/22 01:19:28;;;;;;;33.10;20.60;;;;;;;0.38;100.00;101289.92;104878;1266;61057;-74
2024/03/22 01:21:55;;;;;;;34.80;21.70;;;;;;;0.38;100.00;101288.39;105443;1259;59541;-74
2024/03/22 01:24:23;;;;;;;31.60;21.40;;;;;;;0.40;100.00;101288.86;105542;1258;73408;-73
2024/03/22 01:26:50;;;;;;;33.40;20.60;;;;;;;0.43;100.00;101285.42;105560;1255;62293;-74
2024/03/22 01:29:17;;;;;;;36.50;20.40;;;;;;;0.43;100.00;101287.48;105492;1255;71520;-73
2024/03/22 01:31:44;;;;;;;32.50;20.00;;;;;;;0.43;100.00;101286.80;105588;1257;206037;-74
2024/03/22 01:34:12;;;;;;;31.70;21.30;;;;;;;0.40;100.00;101283.02;105665;1253;59525;-74
2024/03/22 01:36:39;;;;;;;33.70;21.50;;;;;;;0.38;100.00;101281.85;105724;1252;72829;-72
2024/03/22 01:39:06;;;;;;;37.90;21.50;;;;;;;0.37;100.00;101282.70;105691;1253;62514;-74
2024/03/22 01:41:33;;;;;;;34.30;20.20;;;;;;;0.37;100.00;101283.91;105651;1256;72798;-75
2024/03/22 01:44:01;;;;;;;30.80;19.50;;;;;;;0.35;100.00;101284.09;105631;1253;60525;-73
2024/03/22 01:46:28;;;;;;;36.90;21.00;;;;;;;0.35;100.00;101284.61;105720;1258;60365;-75
2024/03/22 01:48:55;;;;;;;38.40;21.50;;;;;;;0.35;100.00;101282.71;105634;1257;74496;-75
2024/03/22 01:51:22;;;;;;;34.70;20.40;;;;;;;0.35;100.00;101284.79;105599;1259;62324;-75
2024/03/22 01:53:50;;;;;;;35.30;21.90;;;;;;;0.31;100.00;101285.49;105765;1259;72704;-74
2024/03/22 01:56:17;;;;;;;34.60;21.10;;;;;;;0.29;100.00;101284.30;105620;1253;60584;-73
2024/03/22 01:58:44;;;;;;;37.10;21.30;;;;;;;0.27;100.00;101282.95;105665;1257;60426;-74
2024/03/22 02:01:11;;;;;;;35.20;22.30;;;;;;;0.26;100.00;101282.45;105693;1253;73820;-72
2024/03/22 02:03:39;;;;;;;33.40;20.10;;;;;;;0.23;100.00;101281.79;105784;1252;62270;-74
2024/03/22 02:06:10;;;;;;;39.20;21.80;;;;;;;0.20;100.00;101279.90;105650;1253;71653;-73
2024/03/22 02:08:40;;;;;;;34.30;21.90;;;;;;;0.17;100.00;101279.07;105646;1257;60486;-73
2024/03/22 02:11:08;;;;;;;32.70;21.00;;;;;;;0.14;100.00;101283.55;105674;1256;60505;-73
2024/03/22 02:13:35;;;;;;;28.00;19.70;;;;;;;0.12;100.00;101283.05;105689;1253;72736;-73
2024/03/22 02:16:03;;;;;;;33.90;21.00;;;;;;;0.12;100.00;101282.88;105711;1259;64059;-75
2024/03/22 02:18:30;;;;;;;36.70;20.90;;;;;;;0.13;100.00;101282.34;105799;1257;72719;-74
2024/03/22 02:20:58;;;;;;;30.10;19.50;;;;;;;0.12;100.00;101285.45;105718;1253;60515;-73
2024/03/22 02:23:36;;;;;;;44.90;24.00;;;;;;;0.12;100.00;101282.87;105678;1253;60442;-73
2024/03/22 02:26:03;;;;;;;41.10;24.80;;;;;;;0.18;100.00;101281.46;105693;1253;73657;-75
2024/03/22 02:28:32;;;;;;;44.10;24.30;;;;;;;0.24;100.00;101281.59;105831;1253;62501;-76
2024/03/22 02:30:59;;;;;;;37.20;25.50;;;;;;;0.29;100.00;101282.95;105794;1253;72739;-74
2024/03/22 02:33:27;;;;;;;45.80;28.10;;;;;;;0.31;100.00;101279.48;105707;1253;60530;-75
2024/03/22 02:35:54;;;;;;;48.50;29.30;;;;;;;0.33;100.00;101280.67;105674;1258;60372;-73
2024/03/22 02:38:21;;;;;;;49.80;32.20;;;;;;;0.33;100.00;101276.02;105673;1254;73745;-75
2024/03/22 02:40:50;;;;;;;56.70;35.70;;;;;;;0.32;100.00;101273.28;105637;1257;63574;-73
2024/03/22 02:43:18;;;;;;;60.80;40.10;;;;;;;0.31;100.00;101272.09;105713;1253;73354;-73
2024/03/22 02:45:46;;;;;;;56.30;39.30;;;;;;;0.29;100.00;101270.90;105796;1253;60849;-72
2024/03/22 02:51:28;;;;;;;57.90;37.20;;;;;;;0.26;100.00;101273.16;95288;1276;999723;-76
2024/03/22 02:53:56;;;;;;;57.20;36.10;;;;;;;0.24;100.00;101273.69;104595;1276;62597;-76
2024/03/22 02:56:23;;;;;;;60.00;38.60;;;;;;;0.23;100.00;101272.83;104505;1275;72822;-80
2024/03/22 02:58:50;;;;;;;59.10;38.00;;;;;;;0.22;100.00;101274.22;104541;1271;60488;-77
2024/03/22 03:01:17;;;;;;;67.50;40.10;;;;;;;0.24;100.00;101280.39;104503;1271;60386;-76
2024/03/22 03:03:45;;;;;;;66.70;41.20;;;;;;;0.25;100.00;101277.80;104540;1271;72704;-77
2024/03/22 03:06:13;;;;;;;65.00;42.30;;;;;;;0.28;100.00;101282.27;104525;1275;63739;-78
2024/03/22 03:08:40;;;;;;;72.30;47.20;;;;;;;0.29;100.00;101280.70;104898;1276;72745;-79
2024/03/22 03:11:07;;;;;;;68.40;45.50;;;;;;;0.30;100.00;101277.60;104810;1271;61200;-78
2024/03/22 03:13:35;;;;;;;77.10;50.20;;;;;;;0.33;100.00;101278.95;105036;1270;60465;-77
2024/03/22 03:16:02;;;;;;;71.70;45.40;;;;;;;0.37;100.00;101276.34;104697;1274;73860;-78
2024/03/22 03:18:30;;;;;;;77.60;48.90;;;;;;;0.40;100.00;101277.17;104379;1276;63735;-77
2024/03/22 03:20:57;;;;;;;65.70;46.70;;;;;;;0.44;100.00;101274.23;104965;1273;71538;-77
2024/03/22 03:26:46;;;;;;;65.70;43.20;;;;;;;0.51;100.00;101269.71;93449;1271;1002365;-75
2024/03/22 03:29:14;;;;;;;59.20;40.40;;;;;;;0.51;100.00;101265.05;104418;1274;73384;-77
2024/03/22 03:31:41;;;;;;;75.30;43.00;;;;;;;0.51;100.00;101263.86;104455;1275;62779;-77
2024/03/22 03:34:08;;;;;;;68.00;43.50;;;;;;;0.53;100.00;101267.45;104198;1274;73768;-77
2024/03/22 03:36:35;;;;;;;66.70;42.00;;;;;;;0.53;100.00;101267.79;104134;1271;61789;-76
2024/03/22 03:45:24;;;;;;;70.10;43.80;;;;;;;0.52;100.00;101274.34;102618;1276;999185;-73
2024/03/22 03:47:52;;;;;;;74.50;46.00;;;;;;;0.53;100.00;101276.73;104312;1276;72568;-73
2024/03/22 03:50:19;;;;;;;69.80;46.50;;;;;;;0.55;100.00;101274.14;104446;1277;60565;-75
2024/03/22 03:52:46;;;;;;;76.20;47.70;;;;;;;0.57;100.00;101277.40;104247;1279;60460;-74
2024/03/22 03:55:14;;;;;;;82.50;49.40;;;;;;;0.60;100.00;101278.57;103875;1281;73798;-74
2024/03/22 03:57:41;;;;;;;81.00;49.60;;;;;;;0.62;100.00;101275.13;104286;1278;62422;-74
2024/03/22 04:00:09;;;;;;;82.40;49.20;;;;;;;0.63;100.00;101275.63;104104;1280;71601;-74
2024/03/22 04:02:38;;;;;;;51.00;33.40;;;;;;;0.65;100.00;101273.20;104130;1280;61153;-75
2024/03/22 04:05:05;;;;;;;21.80;14.20;;;;;;;0.67;100.00;101272.48;104116;1275;60629;-74
2024/03/22 04:07:33;;;;;;;14.60;10.10;;;;;;;0.71;100.00;101272.29;104165;1274;73801;-75
2024/03/22 04:10:00;;;;;;;15.80;10.80;;;;;;;0.71;100.00;101271.25;104478;1278;63764;-74
2024/03/22 04:12:27;;;;;;;11.40;8.00;;;;;;;0.70;100.00;101270.05;104216;1276;72653;-76
2024/03/22 04:14:54;;;;;;;16.10;8.50;;;;;;;0.70;100.00;101273.15;104103;1278;62878;-75
2024/03/22 04:17:22;;;;;;;15.00;8.60;;;;;;;0.73;100.00;101269.68;104168;1273;60388;-77
2024/03/22 04:19:50;;;;;;;10.10;7.60;;;;;;;0.74;100.00;101270.54;104216;1276;72796;-72
2024/03/22 04:22:17;;;;;;;9.30;6.90;;;;;;;0.72;100.00;101273.31;104199;1276;62538;-74
2024/03/22 04:24:45;;;;;;;11.10;8.00;;;;;;;0.70;100.00;101271.95;104936;1286;70278;-74
2024/03/22 04:27:13;;;;;;;10.10;7.30;;;;;;;0.70;100.00;101272.11;104912;1273;60539;-73
2024/03/22 04:29:40;;;;;;;7.50;6.50;;;;;;;0.73;100.00;101268.99;104243;1277;60445;-75
2024/03/22 04:32:07;;;;;;;10.80;7.00;;;;;;;0.76;100.00;101265.52;104377;1274;72682;-74
2024/03/22 04:34:35;;;;;;;11.10;6.30;;;;;;;0.79;100.00;101267.22;104224;1275;62473;-74
2024/03/22 04:37:02;;;;;;;10.30;6.00;;;;;;;0.86;100.00;101272.67;104216;1274;71984;-74
2024/03/22 04:39:31;;;;;;;13.30;7.90;;;;;;;0.92;100.00;101278.48;104166;1278;60977;-74
2024/03/22 04:41:58;;;;;;;9.10;6.40;;;;;;;0.96;100.00;101276.20;104224;1273;60494;-74
2024/03/22 04:44:25;;;;;;;10.50;7.00;;;;;;;1.00;100.00;101279.77;104413;1279;73847;-73
2024/03/22 04:46:55;;;;;;;10.20;6.80;;;;;;;1.05;100.00;101282.30;104139;1274;62567;-75
2024/03/22 04:49:22;;;;;;;9.40;6.50;;;;;;;1.09;100.00;101278.98;104431;1273;71503;-76
2024/03/22 04:51:50;;;;;;;11.10;6.80;;;;;;;1.12;100.00;101276.36;104300;1273;60603;-74
2024/03/22 04:54:17;;;;;;;9.60;6.20;;;;;;;1.17;100.00;101279.08;104295;1273;60469;-73
2024/03/22 04:56:44;;;;;;;7.80;5.60;;;;;;;1.18;100.00;101280.27;104020;1277;72269;-74
2024/03/22 04:59:11;;;;;;;9.10;6.80;;;;;;;1.20;100.00;101278.86;104185;1276;62272;-74
2024/03/22 05:01:39;;;;;;;8.70;6.40;;;;;;;1.25;100.00;101283.13;104306;1276;71900;-74
2024/03/22 05:04:07;;;;;;;8.60;6.40;;;;;;;1.29;100.00;101282.04;104120;1280;60956;-74
2024/03/22 05:06:34;;;;;;;8.10;5.60;;;;;;;1.30;100.00;101279.46;104185;1278;60501;-75
2024/03/22 05:09:03;;;;;;;6.60;5.60;;;;;;;1.31;100.00;101276.67;104219;1274;72412;-75
2024/03/22 05:11:30;;;;;;;7.60;4.50;;;;;;;1.39;100.00;101275.73;104204;1273;61796;-74
2024/03/22 05:13:58;;;;;;;7.40;5.00;;;;;;;1.47;100.00;101273.58;104320;1274;72760;-74
2024/03/22 05:16:25;;;;;;;5.20;4.70;;;;;;;1.51;100.00;101269.21;104130;1273;60522;-74
2024/03/22 05:18:52;;;;;;;6.00;5.10;;;;;;;1.52;100.00;101271.63;104274;1274;60526;-73
2024/03/22 05:21:20;;;;;;;5.60;4.60;;;;;;;1.54;100.00;101274.18;104483;1278;73928;-74
2024/03/22 05:23:47;;;;;;;7.20;4.30;;;;;;;1.57;100.00;101275.01;104272;1273;63796;-76
2024/03/22 05:26:14;;;;;;;5.10;4.20;;;;;;;1.61;100.00;101273.58;104308;1274;72752;-75
2024/03/22 05:28:42;;;;;;;5.50;4.80;;;;;;;1.65;100.00;101273.53;104103;1278;62789;-74
2024/03/22 05:31:09;;;;;;;7.00;4.70;;;;;;;1.69;100.00;101278.46;104193;1278;61298;-75
2024/03/22 05:33:36;;;;;;;8.60;4.30;;;;;;;1.75;100.00;101276.84;104228;1274;73546;-74
2024/03/22 05:36:07;;;;;;;6.60;5.10;;;;;;;1.81;100.00;101276.77;104214;1273;62661;-76
2024/03/22 05:38:35;;;;;;;4.70;3.90;;;;;;;1.86;100.00;101280.15;104025;1273;72717;-74
2024/03/22 05:41:06;;;;;;;5.60;3.70;;;;;;;1.87;100.00;101278.58;104296;1279;61396;-74
2024/03/22 05:43:33;;;;;;;4.30;3.90;;;;;;;1.91;100.00;101284.22;104488;1274;61325;-74
2024/03/22 05:46:00;;;;;;;6.70;4.20;;;;;;;1.87;100.00;101284.63;104383;1274;73507;-73
2024/03/22 05:48:28;;;;;;;5.70;3.80;;;;;;;1.82;100.00;101282.79;104263;1279;61463;-74
2024/03/22 05:50:55;;;;;;;5.20;4.00;;;;;;;1.77;100.00;101279.23;104186;1287;71472;-75
2024/03/22 05:53:23;;;;;;;5.00;4.50;;;;;;;1.74;100.00;101279.98;104122;1278;61391;-74
2024/03/22 05:55:50;;;;;;;4.80;4.00;;;;;;;1.77;100.00;101286.98;104238;1278;61467;-75
2024/03/22 05:58:18;;;;;;;4.60;4.20;;;;;;;1.78;100.00;101284.56;104478;1274;73471;-73
2024/03/22 06:00:45;;;;;;;5.40;4.50;;;;;;;1.78;100.00;101286.11;104158;1276;63627;-74
2024/03/22 06:03:13;;;;;;;5.50;4.10;;;;;;;1.76;100.00;101279.59;104022;1279;71470;-76
2024/03/22 06:05:40;;;;;;;4.80;4.20;;;;;;;1.78;100.00;101279.56;104350;1279;61332;-73
2024/03/22 06:08:08;;;;;;;3.70;3.40;;;;;;;1.80;100.00;101284.89;104107;1273;61384;-75
2024/03/22 06:10:35;;;;;;;6.20;3.70;;;;;;;1.82;100.00;101281.93;104317;1276;74175;-75
2024/03/22 06:13:03;;;;;;;6.80;4.20;;;;;;;1.85;100.00;101280.16;104450;1273;64051;-75
2024/03/22 06:15:30;;;;;;;7.10;5.00;;;;;;;1.85;100.00;101281.90;104264;1276;71987;-73
2024/03/22 06:17:57;;;;;;;6.40;3.80;;;;;;;1.85;100.00;101279.30;104109;1274;61275;-76
2024/03/22 06:20:24;;;;;;;5.20;4.70;;;;;;;1.88;100.00;101279.08;103990;1280;61192;-74
2024/03/22 06:22:52;;;;;;;11.40;5.00;;;;;;;1.93;100.00;101275.06;104098;1278;73587;-74
2024/03/22 06:25:19;;;;;;;6.00;5.40;;;;;;;1.97;100.00;101272.23;104096;1273;63996;-75
2024/03/22 06:27:49;;;;;;;8.10;4.60;;;;;;;1.98;100.00;101273.25;104294;1278;72698;-75
2024/03/22 06:30:16;;;;;;;6.50;5.30;;;;;;;2.05;100.00;101275.39;104378;1278;61329;-75
2024/03/22 06:32:44;;;;;;;6.80;6.00;;;;;;;2.13;100.00;101279.43;104224;1276;61295;-74
2024/03/22 06:35:11;;;;;;;5.60;4.90;;;;;;;2.18;100.00;101279.52;104246;1279;75253;-74
2024/03/22 06:37:39;;;;;;;6.80;6.10;;;;;;;2.18;100.00;101282.45;104392;1276;63162;-76
2024/03/22 06:40:07;;;;;;;6.90;5.50;;;;;;;2.17;100.00;101283.51;104378;1274;73093;-75
2024/03/22 06:42:35;;;;;;;6.50;5.80;;;;;;;2.16;100.00;101287.84;104398;1273;61367;-75
2024/03/22 06:45:02;;;;;;;7.20;6.20;;;;;;;2.17;100.00;101292.84;104362;1274;61329;-74
2024/03/22 06:47:30;;;;;;;9.20;5.90;;;;;;;2.20;100.00;101290.19;104340;1277;73427;-75
2024/03/22 06:49:57;;;;;;;9.60;5.60;;;;;;;2.25;100.00;101293.56;104424;1279;63571;-76
2024/03/22 06:52:25;;;;;;;15.00;6.40;;;;;;;2.31;100.00;101294.34;104038;1279;72810;-77
2024/03/22 06:54:53;;;;;;;8.10;5.80;;;;;;;2.34;100.00;101293.27;104080;1278;61371;-73
2024/03/22 06:57:20;;;;;;;8.30;5.80;;;;;;;2.40;100.00;101287.14;104201;1274;61223;-75
2024/03/22 06:59:47;;;;;;;8.10;6.50;;;;;;;2.42;100.00;101289.52;104126;1273;74737;-74
2024/03/22 07:02:15;;;;;;;7.80;6.30;;;;;;;2.44;100.00;101290.17;104097;1279;62215;-75
2024/03/22 07:04:42;;;;;;;7.60;6.20;;;;;;;2.41;100.00;101286.27;104318;1272;75161;-75
2024/03/22 07:07:09;;;;;;;9.20;7.60;;;;;;;2.40;100.00;101293.17;104305;1272;61279;-76
2024/03/22 07:09:37;;;;;;;11.70;7.90;;;;;;;2.43;100.00;101289.50;104754;1279;61282;-74
2024/03/22 07:12:04;;;;;;;10.80;7.80;;;;;;;2.48;100.00;101292.86;105115;1279;73511;-76
2024/03/22 07:14:32;;;;;;;9.70;6.90;;;;;;;2.53;100.00;101290.89;105066;1279;62643;-75
2024/03/22 07:17:00;;;;;;;9.50;7.40;;;;;;;2.60;100.00;101287.52;104184;1279;73236;-76
2024/03/22 07:19:28;;;;;;;11.70;7.60;;;;;;;2.69;100.00;101290.30;104290;1273;61370;-75
2024/03/22 07:21:56;;;;;;;11.90;8.70;;;;;;;2.77;100.00;101288.80;104168;1277;61169;-76
2024/03/22 07:24:23;;;;;;;15.60;8.90;;;;;;;2.85;100.00;101291.23;104294;1274;73923;-76
2024/03/22 07:26:53;;;;;;;11.10;8.40;;;;;;;2.93;100.00;101293.02;104290;1273;63602;-76
2024/03/22 07:29:21;;;;;;;13.60;8.70;;;;;;;2.94;100.00;101291.27;104316;1274;71532;-76
2024/03/22 07:31:48;;;;;;;13.00;8.90;;;;;;;2.91;100.00;101288.38;104151;1273;61260;-77
2024/03/22 07:34:15;;;;;;;15.70;9.50;;;;;;;2.87;100.00;101292.58;104095;1273;61350;-75
2024/03/22 07:36:43;;;;;;;11.40;8.80;;;;;;;2.90;100.00;101293.05;104180;1274;74248;-76
2024/03/22 07:39:10;;;;;;;11.00;8.90;;;;;;;2.94;100.00;101291.26;104393;1273;66105;-77
2024/03/22 07:41:39;;;;;;;13.30;8.80;;;;;;;2.96;100.00;101291.39;104319;1273;71672;-77
2024/03/22 07:44:07;;;;;;;14.90;9.00;;;;;;;3.00;100.00;101292.88;104431;1276;61874;-75
2024/03/22 07:46:34;;;;;;;15.30;10.30;;;;;;;3.08;100.00;101286.70;104099;1273;61278;-75
2024/03/22 07:49:04;;;;;;;13.10;9.20;;;;;;;3.15;100.00;101286.38;104213;1273;75812;-76
2024/03/22 07:51:32;;;;;;;10.80;8.90;;;;;;;3.17;100.00;101282.89;104447;1274;64130;-76
2024/03/22 07:53:59;;;;;;;13.50;8.90;;;;;;;3.14;100.00;101281.92;104448;1273;72005;-73
2024/03/22 07:56:27;;;;;;;10.80;7.90;;;;;;;3.21;100.00;101275.73;104187;1274;61525;-77
2024/03/22 07:58:55;;;;;;;13.30;9.60;;;;;;;3.27;100.00;101272.34;104327;1273;61300;-74
2024/03/22 08:01:23;;;;;;;15.80;8.90;;;;;;;3.30;100.00;101273.14;104203;1273;75026;-75
2024/03/22 08:03:51;;;;;;;15.10;9.20;;;;;;;3.42;100.00;101269.79;104317;1273;63461;-76
2024/03/22 08:06:19;;;;;;;10.50;8.00;;;;;;;3.51;100.00;101268.73;104114;1273;73316;-76
2024/03/22 08:08:46;;;;;;;13.70;8.20;;;;;;;3.55;100.00;101265.21;104165;1278;61381;-76
2024/03/22 08:11:14;;;;;;;11.70;8.70;;;;;;;3.63;100.00;101259.19;104092;1272;61321;-75
2024/03/22 08:13:41;;;;;;;10.20;7.70;;;;;;;3.74;100.00;101258.77;104370;1274;75250;-76
2024/03/22 08:16:09;;;;;;;13.70;7.70;;;;;;;3.79;100.00;101255.56;104450;1279;63343;-76
2024/03/22 08:18:37;;;;;;;10.40;7.20;;;;;;;3.84;100.00;101254.75;104119;1277;73841;-74
2024/03/22 08:21:04;;;;;;;12.50;8.80;;;;;;;3.92;100.00;101254.58;104334;1278;61406;-75
2024/03/22 08:23:32;;;;;;;12.30;8.20;;;;;;;3.95;100.00;101255.54;104196;1273;61480;-76
2024/03/22 08:26:00;;;;;;;9.30;7.70;;;;;;;4.08;100.00;101252.13;104342;1273;73380;-76
2024/03/22 08:28:27;;;;;;;10.20;8.90;;;;;;;4.21;100.00;101252.71;104390;1278;64434;-77
2024/03/22 08:31:05;;;;;;;13.00;7.60;;;;;;;4.29;100.00;101251.48;104126;1280;72474;-75
2024/03/22 08:33:33;;;;;;;11.10;7.30;;;;;;;4.31;100.00;101248.47;104171;1280;61361;-76
2024/03/22 08:36:01;;;;;;;8.90;7.90;;;;;;;4.40;100.00;101245.67;104426;1273;61179;-76
2024/03/22 08:38:28;;;;;;;10.60;7.50;;;;;;;4.54;100.00;101244.64;104126;1279;74665;-75
2024/03/22 08:40:55;;;;;;;11.00;8.00;;;;;;;4.73;100.00;101237.75;104341;1279;65774;-75
2024/03/22 08:43:25;;;;;;;11.00;7.70;;;;;;;4.82;100.00;101239.25;104215;1280;73682;-76
2024/03/22 08:45:53;;;;;;;10.80;8.10;;;;;;;4.89;100.00;101233.88;104346;1276;61367;-75
2024/03/22 08:48:21;;;;;;;11.40;8.00;;;;;;;4.93;100.00;101233.41;104446;1273;61243;-77
2024/03/22 08:50:49;;;;;;;12.70;8.60;;;;;;;4.93;100.00;101234.95;104261;1274;76833;-75
2024/03/22 08:53:17;;;;;;;12.00;8.00;;;;;;;4.96;100.00;101235.94;104154;1276;63629;-76
2024/03/22 08:55:47;;;;;;;9.10;7.60;;;;;;;5.02;100.00;101243.21;104398;1273;74577;-74
2024/03/22 08:58:15;;;;;;;8.70;6.90;;;;;;;5.05;100.00;101238.30;104139;1279;61368;-76
2024/03/22 09:00:43;;;;;;;11.50;7.90;;;;;;;5.08;100.00;101235.44;104338;1274;61291;-76
2024/03/22 09:03:10;;;;;;;12.00;7.80;;;;;;;5.10;100.00;101239.38;104197;1279;74780;-76
2024/03/22 09:05:38;;;;;;;7.40;6.50;;;;;;;5.07;100.00;101231.67;104238;1273;63672;-76
2024/03/22 09:08:11;;;;;;;12.50;6.80;;;;;;;5.03;100.00;101234.02;104333;1276;74902;-75
2024/03/22 09:10:38;;;;;;;13.10;7.20;;;;;;;5.04;100.00;101236.95;104245;1278;61966;-75
2024/03/22 09:13:05;;;;;;;9.80;7.60;;;;;;;5.02;100.00;101231.95;104154;1276;61266;-73
2024/03/22 09:15:33;;;;;;;9.30;7.40;;;;;;;4.98;100.00;101233.45;104352;1274;77262;-76
2024/03/22 09:18:00;;;;;;;11.10;7.60;;;;;;;4.98;100.00;101236.59;104334;1279;63639;-75
2024/03/22 09:20:27;;;;;;;8.60;7.00;;;;;;;5.06;100.00;101235.48;104188;1274;74039;-76
2024/03/22 09:22:55;;;;;;;8.50;6.40;;;;;;;5.06;100.00;101231.00;104146;1273;61295;-76
2024/03/22 09:25:24;;;;;;;12.80;7.10;;;;;;;5.06;100.00;101232.21;104234;1276;61329;-77
2024/03/22 09:27:51;;;;;;;10.00;7.80;;;;;;;5.13;100.00;101230.09;104342;1274;74566;-76
2024/03/22 09:30:19;;;;;;;10.20;8.10;;;;;;;5.23;100.00;101230.67;104329;1276;65405;-73
2024/03/22 09:32:47;;;;;;;11.10;7.50;;;;;;;5.32;100.00;101232.88;104833;1274;73127;-76
2024/03/22 09:35:14;;;;;;;8.30;7.10;;;;;;;5.33;100.00;101225.73;104103;1279;61301;-76
2024/03/22 09:37:42;;;;;;;13.10;9.40;;;;;;;5.35;100.00;101226.36;104288;1273;61389;-77
2024/03/22 09:40:09;;;;;;;10.80;7.10;;;;;;;5.36;100.00;101222.35;104366;1273;74213;-75
2024/03/22 09:42:39;;;;;;;11.80;6.90;;;;;;;5.32;100.00;101220.04;104245;1274;64192;-77
2024/03/22 09:45:13;;;;;;;9.20;7.90;;;;;;;5.22;100.00;101213.91;104289;1279;71893;-76
2024/03/22 09:47:40;;;;;;;10.40;8.60;;;;;;;5.21;100.00;101217.07;103975;1274;61406;-77
2024/03/22 09:50:08;;;;;;;10.00;8.30;;;;;;;5.20;100.00;101208.23;104146;1273;61314;-76
2024/03/22 09:52:38;;;;;;;9.80;8.10;;;;;;;5.24;100.00;101205.02;104208;1272;75210;-76
2024/03/22 09:55:07;;;;;;;11.20;7.90;;;;;;;5.32;100.00;101205.64;104212;1279;64010;-76
2024/03/22 09:57:37;;;;;;;11.60;8.30;;;;;;;5.43;100.00;101206.54;104535;1280;72489;-76
2024/03/22 10:00:08;;;;;;;9.10;8.20;;;;;;;5.54;100.00;101201.20;104498;1279;61358;-74
2024/03/22 10:02:39;;;;;;;13.60;8.30;;;;;;;5.61;100.00;101199.60;104506;1273;61342;-75
2024/03/22 10:05:10;;;;;;;10.90;7.50;;;;;;;5.67;100.00;101202.71;104198;1274;74565;-77
2024/03/22 10:07:37;;;;;;;12.10;7.90;;;;;;;5.72;100.00;101201.52;104363;1278;63817;-76
2024/03/22 10:10:05;;;;;;;11.10;9.60;;;;;;;5.76;100.00;101199.83;104186;1277;74470;-75
2024/03/22 10:12:32;;;;;;;13.00;10.20;;;;;;;5.73;100.00;101201.30;104273;1273;61341;-76
2024/03/22 10:15:00;;;;;;;13.20;9.90;;;;;;;5.68;100.00;101199.73;104384;1273;61183;-77
2024/03/22 10:17:28;;;;;;;11.30;9.70;;;;;;;5.65;100.00;101199.99;104350;1279;74493;-77
2024/03/22 10:19:56;;;;;;;10.60;8.60;;;;;;;5.70;100.00;101203.14;104385;1273;65548;-77
2024/03/22 10:22:24;;;;;;;10.40;9.10;;;;;;;5.72;100.00;101201.51;104211;1274;73785;-78
2024/03/22 10:24:53;;;;;;;11.00;9.00;;;;;;;5.69;100.00;101196.59;104137;1276;61432;-77
2024/03/22 10:27:21;;;;;;;8.30;7.40;;;;;;;5.73;100.00;101200.97;104200;1273;61436;-75
2024/03/22 10:29:48;;;;;;;10.40;8.90;;;;;;;5.78;100.00;101201.68;104472;1276;74364;-77
2024/03/22 10:32:15;;;;;;;9.40;8.30;;;;;;;5.74;100.00;101203.20;103979;1273;64398;-76
2024/03/22 10:34:43;;;;;;;11.80;6.90;;;;;;;5.70;100.00;101202.44;104121;1272;72063;-77
2024/03/22 10:37:10;;;;;;;11.80;8.90;;;;;;;5.72;100.00;101198.74;104304;1273;61247;-76
2024/03/22 10:39:37;;;;;;;11.30;8.40;;;;;;;5.75;100.00;101200.37;104285;1273;62444;-76
2024/03/22 10:42:05;;;;;;;11.80;7.70;;;;;;;5.77;100.00;101201.36;104218;1274;75047;-76
2024/03/22 10:44:39;;;;;;;11.00;8.30;;;;;;;5.77;100.00;101202.57;104306;1276;63471;-77
2024/03/22 10:47:07;;;;;;;11.40;7.30;;;;;;;5.72;100.00;101202.40;104170;1273;73160;-76
2024/03/22 10:49:36;;;;;;;10.90;8.30;;;;;;;5.58;100.00;101197.44;104363;1272;62103;-77
2024/03/22 10:52:04;;;;;;;12.00;7.80;;;;;;;5.44;100.00;101193.85;104427;1273;61380;-77
2024/03/22 10:54:38;;;;;;;11.40;8.20;;;;;;;5.37;100.00;101188.17;104307;1272;76853;-76
2024/03/22 10:57:07;;;;;;;9.40;6.60;;;;;;;5.34;100.00;101188.60;104458;1273;63116;-76
2024/03/22 10:59:35;;;;;;;11.80;7.60;;;;;;;5.37;100.00;101190.25;104239;1273;75057;-76
2024/03/22 11:02:07;;;;;;;10.00;7.90;;;;;;;5.40;100.00;101190.34;104330;1276;61443;-76
2024/03/22 11:04:34;;;;;;;8.40;7.60;;;;;;;5.45;100.00;101188.96;104123;1273;61263;-76
2024/03/22 11:07:03;;;;;;;9.50;7.50;;;;;;;5.45;100.00;101181.52;104185;1273;74587;-74
2024/03/22 11:09:30;;;;;;;10.20;8.10;;;;;;;5.36;100.00;101179.33;104399;1273;63494;-76
2024/03/22 11:11:59;;;;;;;9.90;6.90;;;;;;;5.33;100.00;101176.13;104330;1272;71913;-76
2024/03/22 11:14:28;;;;;;;14.00;8.20;;;;;;;5.31;100.00;101177.39;104259;1276;61374;-75
2024/03/22 11:16:55;;;;;;;11.10;8.20;;;;;;;5.33;100.00;101172.51;104372;1273;61319;-77
2024/03/22 11:19:23;;;;;;;9.40;7.00;;;;;;;5.33;100.00;101170.42;104500;1271;74721;-76
2024/03/22 11:21:50;;;;;;;8.80;7.70;;;;;;;5.29;100.00;101170.54;104387;1276;64468;-76
2024/03/22 11:24:17;;;;;;;9.70;7.00;;;;;;;5.30;100.00;101172.42;104307;1273;73742;-77
2024/03/22 11:26:45;;;;;;;11.10;7.90;;;;;;;5.34;100.00;101164.33;104386;1273;61367;-76
2024/03/22 11:29:14;;;;;;;10.70;7.60;;;;;;;5.39;100.00;101165.04;104111;1272;61613;-76
2024/03/22 11:43:45;;;;;;;12.20;8.10;;;;;;;5.29;100.00;101147.99;102486;1294;603591;-75
2024/03/22 11:46:12;;;;;;;10.20;7.40;;;;;;;5.22;100.00;101145.27;104928;1266;59887;-76
2024/03/22 11:48:41;;;;;;;11.00;8.20;;;;;;;5.21;100.00;101145.13;104968;1270;60457;-78